Time;durP1;ratioP1;P1;durP2;ratioP2;P2;SDS_P1;SDS_P2;PMS_P1;PMS_P2;Temp;Humidity;BMP_temperature;BMP_pressure;BME280_temperature;BME280_humidity;BME280_pressure;Samples;Min_cycle;Max_cycle;Signal;HPM_P1;HPM_P2
2024/03/17 05:06:15;;;;;;;0.30;0.30;;;6.40;99.90;;;;;;5916484;23;20252;-61
2024/03/17 05:08:40;;;;;;;0.30;0.30;;;6.40;99.90;;;;;;4896728;29;20186;-60
2024/03/17 05:11:06;;;;;;;0.30;0.30;;;6.30;99.90;;;;;;4897290;29;20171;-61
2024/03/17 05:13:33;;;;;;;0.30;0.30;;;6.30;99.90;;;;;;4897377;29;20560;-61
2024/03/17 05:16:00;;;;;;;0.30;0.30;;;6.30;99.90;;;;;;4896008;29;20542;-61
2024/03/17 05:18:26;;;;;;;0.30;0.30;;;6.20;99.90;;;;;;4895480;29;20180;-61
2024/03/17 05:21:04;;;;;;;0.73;0.73;;;6.20;99.90;;;;;;4900337;29;20206;-61
2024/03/17 05:23:31;;;;;;;0.43;0.43;;;6.20;99.90;;;;;;4899580;29;20186;-61
2024/03/17 05:25:58;;;;;;;0.43;0.43;;;6.20;99.90;;;;;;4899847;29;20214;-61
2024/03/17 05:28:29;;;;;;;0.30;0.30;;;6.20;99.90;;;;;;4900722;29;20257;-60
2024/03/17 05:30:56;;;;;;;0.30;0.30;;;6.20;99.90;;;;;;4894199;29;20228;-60
2024/03/17 05:33:23;;;;;;;0.30;0.30;;;6.20;99.90;;;;;;4881580;29;20592;-61
2024/03/17 05:35:55;;;;;;;0.55;0.55;;;6.20;99.90;;;;;;4880786;29;20171;-61
2024/03/17 05:38:22;;;;;;;0.30;0.30;;;6.20;99.90;;;;;;4881127;29;20341;-60
2024/03/17 05:40:59;;;;;;;0.30;0.30;;;6.20;99.90;;;;;;4881919;29;20171;-61
2024/03/17 05:43:26;;;;;;;0.30;0.30;;;6.30;99.90;;;;;;4880374;29;20238;-61
2024/03/17 05:45:58;;;;;;;0.30;0.30;;;6.30;99.90;;;;;;4887052;29;20179;-61
2024/03/17 05:48:26;;;;;;;0.50;0.50;;;6.30;99.90;;;;;;4900211;29;20187;-61
2024/03/17 05:50:52;;;;;;;0.40;0.40;;;6.40;99.90;;;;;;4899834;29;20171;-60
2024/03/17 05:53:19;;;;;;;0.40;0.40;;;6.40;99.90;;;;;;4898985;29;20189;-61
2024/03/17 05:55:45;;;;;;;0.30;0.30;;;6.40;99.90;;;;;;4899334;29;20561;-60
2024/03/17 05:58:11;;;;;;;0.30;0.30;;;6.40;99.90;;;;;;4900047;29;20388;-61
2024/03/17 06:00:38;;;;;;;0.30;0.30;;;6.40;99.90;;;;;;4895997;29;20420;-60
2024/03/17 06:03:05;;;;;;;0.50;0.50;;;6.40;99.90;;;;;;4881220;29;20830;-60
2024/03/17 06:05:35;;;;;;;0.30;0.30;;;6.50;99.90;;;;;;4880496;29;20268;-60
2024/03/17 06:08:02;;;;;;;0.30;0.30;;;6.50;99.90;;;;;;4880840;29;20210;-60
2024/03/17 06:10:33;;;;;;;0.30;0.30;;;6.60;99.90;;;;;;4879890;29;20179;-61
2024/03/17 06:12:59;;;;;;;0.40;0.40;;;6.60;99.90;;;;;;4881103;29;20246;-61
2024/03/17 06:15:25;;;;;;;0.33;0.33;;;6.60;99.90;;;;;;4882974;29;20265;-60
2024/03/17 06:17:51;;;;;;;0.35;0.35;;;6.60;99.90;;;;;;4898735;29;20763;-61
2024/03/17 06:20:18;;;;;;;0.30;0.30;;;6.60;99.90;;;;;;4899398;29;20195;-60
2024/03/17 06:22:45;;;;;;;0.50;0.50;;;6.60;99.90;;;;;;4890215;29;20739;-60
2024/03/17 06:25:11;;;;;;;0.30;0.30;;;6.60;99.90;;;;;;4899204;29;20181;-60
2024/03/17 06:27:37;;;;;;;0.30;0.30;;;6.60;99.90;;;;;;4899155;29;20580;-60
2024/03/17 06:30:06;;;;;;;0.40;0.40;;;6.60;99.90;;;;;;4899327;29;20541;-60
2024/03/17 06:32:32;;;;;;;0.30;0.30;;;6.60;99.90;;;;;;4880155;29;21213;-62
2024/03/17 06:35:02;;;;;;;0.40;0.40;;;6.50;99.90;;;;;;4898662;29;20185;-60
2024/03/17 06:37:27;;;;;;;0.30;0.30;;;6.50;99.90;;;;;;4898813;29;20206;-60
2024/03/17 06:39:53;;;;;;;0.30;0.30;;;6.60;99.90;;;;;;4899048;29;20178;-59
2024/03/17 06:42:19;;;;;;;0.30;0.30;;;6.70;99.90;;;;;;4887900;29;20618;-59
2024/03/17 06:44:45;;;;;;;0.37;0.37;;;6.80;99.90;;;;;;4898898;29;20211;-60
2024/03/17 06:47:10;;;;;;;0.30;0.30;;;7.00;99.90;;;;;;4882968;29;20454;-60
2024/03/17 06:49:36;;;;;;;0.30;0.30;;;7.10;99.90;;;;;;4879059;29;20656;-60
2024/03/17 06:52:02;;;;;;;0.37;0.37;;;7.20;99.90;;;;;;4881328;29;20424;-60
2024/03/17 06:54:28;;;;;;;0.40;0.40;;;7.40;99.90;;;;;;4880019;29;20519;-62
2024/03/17 06:56:53;;;;;;;0.30;0.30;;;7.50;99.90;;;;;;4880042;29;20211;-62
2024/03/17 06:59:20;;;;;;;0.40;0.40;;;7.70;99.90;;;;;;4880444;29;20190;-62
2024/03/17 07:01:46;;;;;;;0.30;0.30;;;8.00;99.90;;;;;;4881008;29;20192;-61
2024/03/17 07:04:12;;;;;;;0.30;0.30;;;8.30;99.90;;;;;;4880119;29;20232;-62
2024/03/17 07:06:38;;;;;;;0.30;0.30;;;8.50;99.90;;;;;;4879530;29;20204;-62
2024/03/17 07:09:04;;;;;;;0.30;0.30;;;8.60;99.90;;;;;;4879527;29;20447;-61
2024/03/17 07:11:29;;;;;;;0.30;0.30;;;8.70;99.90;;;;;;4879942;29;20180;-62
2024/03/17 07:13:55;;;;;;;0.40;0.40;;;8.80;99.90;;;;;;4880764;29;20184;-63
2024/03/17 07:16:25;;;;;;;0.40;0.40;;;8.90;99.90;;;;;;4889011;29;20558;-61
2024/03/17 07:18:52;;;;;;;0.33;0.33;;;9.00;99.90;;;;;;4898721;29;20516;-62
2024/03/17 07:21:18;;;;;;;0.30;0.30;;;8.90;99.90;;;;;;4889551;29;20780;-62
2024/03/17 07:23:44;;;;;;;0.30;0.30;;;9.00;99.90;;;;;;4894256;29;20218;-62
2024/03/17 07:26:10;;;;;;;0.30;0.30;;;9.10;99.90;;;;;;4897957;29;20413;-63
2024/03/17 07:28:40;;;;;;;0.30;0.30;;;9.10;99.90;;;;;;4898399;29;20182;-60
2024/03/17 07:31:08;;;;;;;0.38;0.38;;;9.20;99.90;;;;;;4890398;29;20418;-62
2024/03/17 07:33:34;;;;;;;0.37;0.37;;;9.20;99.90;;;;;;4880304;29;20211;-64
2024/03/17 07:36:00;;;;;;;0.30;0.30;;;9.30;99.90;;;;;;4878999;29;20930;-62
2024/03/17 07:38:27;;;;;;;0.30;0.30;;;9.20;99.90;;;;;;4879122;29;20188;-61
2024/03/17 07:41:24;;;;;;;0.30;0.30;;;9.20;99.90;;;;;;4885165;29;20392;-62
2024/03/17 07:43:49;;;;;;;0.30;0.30;;;9.30;99.90;;;;;;4893165;29;20462;-60
2024/03/17 07:46:15;;;;;;;0.30;0.30;;;9.50;99.90;;;;;;4888303;29;20451;-61
2024/03/17 07:48:43;;;;;;;0.30;0.20;;;9.70;99.90;;;;;;4878086;29;20181;-63
2024/03/17 07:51:11;;;;;;;0.30;0.30;;;9.80;99.90;;;;;;4879256;29;20522;-61
2024/03/17 07:53:38;;;;;;;0.30;0.30;;;9.90;99.90;;;;;;4880122;29;20812;-62
2024/03/17 07:56:06;;;;;;;0.80;0.80;;;10.00;99.90;;;;;;4879009;29;20452;-62
2024/03/17 07:58:33;;;;;;;0.40;0.40;;;10.40;99.90;;;;;;4877818;29;20461;-60
2024/03/17 08:01:02;;;;;;;0.30;0.30;;;11.10;99.90;;;;;;4881461;29;20424;-60
2024/03/17 08:03:29;;;;;;;0.77;0.77;;;12.20;99.90;;;;;;4887505;29;20460;-62
2024/03/17 08:05:54;;;;;;;0.30;0.30;;;13.10;99.90;;;;;;4895470;29;20425;-62
2024/03/17 08:08:21;;;;;;;0.63;0.63;;;13.80;99.90;;;;;;4894051;29;20497;-59
2024/03/17 08:10:48;;;;;;;0.30;0.30;;;14.20;99.90;;;;;;4880719;29;20213;-61
2024/03/17 08:13:16;;;;;;;0.40;0.40;;;14.50;99.90;;;;;;4895938;29;20423;-62
2024/03/17 08:15:43;;;;;;;0.30;0.30;;;14.50;99.90;;;;;;4890725;29;20492;-60
2024/03/17 08:18:09;;;;;;;0.30;0.27;;;14.40;99.90;;;;;;4877501;29;20863;-61
2024/03/17 08:20:39;;;;;;;0.40;0.40;;;14.30;99.90;;;;;;4878542;29;20448;-61
2024/03/17 08:23:05;;;;;;;0.40;0.40;;;14.10;99.90;;;;;;4879890;29;21000;-60
2024/03/17 08:25:32;;;;;;;0.37;0.33;;;13.80;99.90;;;;;;4878158;29;20389;-60
2024/03/17 08:27:57;;;;;;;0.90;0.47;;;13.40;99.90;;;;;;4879086;29;20438;-61
2024/03/17 08:30:23;;;;;;;0.30;0.30;;;13.00;99.90;;;;;;4880921;29;20951;-60
2024/03/17 08:32:48;;;;;;;0.30;0.30;;;12.90;99.90;;;;;;4888085;29;20185;-61
2024/03/17 08:35:14;;;;;;;0.30;0.30;;;12.80;99.90;;;;;;4878941;29;20201;-60
2024/03/17 08:37:40;;;;;;;0.40;0.40;;;12.80;99.90;;;;;;4895028;29;20332;-61
2024/03/17 08:40:07;;;;;;;0.30;0.20;;;12.60;99.90;;;;;;4897511;29;20502;-62
2024/03/17 08:42:32;;;;;;;0.30;0.20;;;12.70;99.90;;;;;;4878406;29;20235;-59
2024/03/17 08:44:58;;;;;;;0.30;0.30;;;12.70;99.90;;;;;;4878345;29;20445;-60
2024/03/17 08:47:24;;;;;;;0.30;0.30;;;12.70;99.90;;;;;;4879069;29;20411;-60
2024/03/17 08:49:52;;;;;;;0.57;0.57;;;12.70;99.90;;;;;;4881417;29;20191;-61
2024/03/17 08:52:18;;;;;;;0.30;0.30;;;12.90;99.90;;;;;;4892193;29;20192;-61
2024/03/17 08:54:47;;;;;;;0.30;0.30;;;13.10;99.90;;;;;;4893898;29;20409;-59
2024/03/17 08:57:13;;;;;;;0.60;0.60;;;13.30;99.90;;;;;;4900686;29;20272;-62
2024/03/17 08:59:39;;;;;;;0.30;0.30;;;13.30;99.90;;;;;;4900277;29;20449;-61
2024/03/17 09:02:11;;;;;;;0.30;0.30;;;13.40;99.90;;;;;;4896615;29;20501;-70
2024/03/17 09:04:37;;;;;;;0.30;0.30;;;13.40;99.90;;;;;;4883241;29;20185;-62
2024/03/17 09:07:03;;;;;;;0.47;0.47;;;13.50;99.90;;;;;;4882829;29;20466;-60
2024/03/17 09:09:29;;;;;;;0.37;0.37;;;13.90;99.90;;;;;;4882074;29;20172;-60
2024/03/17 09:11:55;;;;;;;1.30;1.23;;;14.50;99.90;;;;;;4899049;29;20785;-61
2024/03/17 09:14:21;;;;;;;0.30;0.30;;;15.00;99.90;;;;;;4881812;29;20709;-62
2024/03/17 09:16:47;;;;;;;0.30;0.20;;;15.50;99.90;;;;;;4883041;29;20575;-60
2024/03/17 09:19:13;;;;;;;0.30;0.30;;;15.80;99.90;;;;;;4898956;29;20402;-62
2024/03/17 09:21:39;;;;;;;0.30;0.30;;;16.00;99.90;;;;;;4900165;29;20430;-62
2024/03/17 09:24:07;;;;;;;0.30;0.20;;;16.50;99.90;;;;;;4900187;29;20254;-61
2024/03/17 09:26:39;;;;;;;0.30;0.20;;;16.60;99.90;;;;;;4899060;29;20423;-63
2024/03/17 09:29:05;;;;;;;0.30;0.30;;;16.90;99.90;;;;;;4899271;29;20435;-59
2024/03/17 09:31:33;;;;;;;0.43;0.30;;;17.20;99.90;;;;;;4898869;29;20416;-62
2024/03/17 09:33:59;;;;;;;0.70;0.70;;;17.60;99.90;;;;;;4900396;29;20526;-62
2024/03/17 09:36:25;;;;;;;0.30;0.30;;;17.90;99.90;;;;;;4899871;29;20494;-61
2024/03/17 09:38:51;;;;;;;0.30;0.20;;;17.90;99.90;;;;;;4900469;29;20223;-62
2024/03/17 09:41:26;;;;;;;0.30;0.20;;;18.00;99.90;;;;;;4900354;29;20430;-61
2024/03/17 09:43:54;;;;;;;0.30;0.20;;;18.00;99.60;;;;;;4900047;29;20495;-60
2024/03/17 09:46:20;;;;;;;0.50;0.50;;;17.70;99.50;;;;;;4899733;29;20928;-61
2024/03/17 09:48:46;;;;;;;0.30;0.30;;;17.30;99.90;;;;;;4896283;29;20445;-59
2024/03/17 09:51:20;;;;;;;0.30;0.30;;;17.20;99.90;;;;;;4881471;29;20391;-61
2024/03/17 09:53:46;;;;;;;0.50;0.50;;;17.10;99.90;;;;;;4881329;29;20180;-60
2024/03/17 09:56:18;;;;;;;0.53;0.53;;;17.10;99.90;;;;;;4881018;29;20426;-61
2024/03/17 09:58:44;;;;;;;0.30;0.30;;;17.30;99.90;;;;;;4881468;29;20408;-61
2024/03/17 10:01:11;;;;;;;0.40;0.40;;;17.50;99.90;;;;;;4881233;29;20423;-63
2024/03/17 10:03:42;;;;;;;0.30;0.20;;;17.50;98.50;;;;;;4881176;29;20464;-62
2024/03/17 10:06:11;;;;;;;0.30;0.30;;;17.40;97.10;;;;;;4879726;29;20452;-61
2024/03/17 10:08:46;;;;;;;0.30;0.30;;;17.40;98.50;;;;;;4880971;29;20415;-61
2024/03/17 10:11:13;;;;;;;0.50;0.50;;;17.50;99.10;;;;;;4881173;29;20422;-62
2024/03/17 10:13:39;;;;;;;0.30;0.30;;;17.70;98.00;;;;;;4880882;29;20964;-62
2024/03/17 10:16:05;;;;;;;0.30;0.30;;;17.80;97.30;;;;;;4895014;29;20412;-60
2024/03/17 10:18:31;;;;;;;0.30;0.30;;;17.70;97.60;;;;;;4880846;29;20446;-62
2024/03/17 10:20:58;;;;;;;1.07;1.07;;;17.80;97.20;;;;;;4880950;29;20470;-61
2024/03/17 10:23:24;;;;;;;0.30;0.20;;;17.90;96.80;;;;;;4880984;29;20210;-60
2024/03/17 10:25:50;;;;;;;0.30;0.20;;;18.00;95.50;;;;;;4880840;29;20389;-61
2024/03/17 10:28:18;;;;;;;0.30;0.30;;;18.20;95.90;;;;;;4880861;29;20507;-62
2024/03/17 10:30:59;;;;;;;0.30;0.30;;;18.30;94.40;;;;;;4880817;29;20285;-61
2024/03/17 10:33:25;;;;;;;0.40;0.37;;;18.10;93.60;;;;;;4880592;29;20769;-60
2024/03/17 10:36:00;;;;;;;0.30;0.30;;;17.90;94.30;;;;;;4878976;29;20963;-61
2024/03/17 10:38:26;;;;;;;0.30;0.30;;;17.90;94.20;;;;;;4880753;29;20433;-62
2024/03/17 10:40:52;;;;;;;0.30;0.30;;;17.90;94.90;;;;;;4880517;29;20398;-62
2024/03/17 10:43:18;;;;;;;0.30;0.20;;;17.80;94.10;;;;;;4880462;29;20815;-62
2024/03/17 10:45:43;;;;;;;0.60;0.60;;;17.90;94.60;;;;;;4880052;29;20182;-61
2024/03/17 10:48:17;;;;;;;0.30;0.20;;;17.90;95.00;;;;;;4880452;29;20199;-61
2024/03/17 10:50:43;;;;;;;0.30;0.20;;;17.70;94.80;;;;;;4899222;29;20389;-61
2024/03/17 10:53:10;;;;;;;0.30;0.20;;;17.70;95.70;;;;;;4898982;29;20795;-61
2024/03/17 10:55:44;;;;;;;0.30;0.20;;;17.80;94.50;;;;;;4897282;29;20450;-60
2024/03/17 10:58:25;;;;;;;0.40;0.30;;;18.00;93.40;;;;;;4898793;29;20439;-61
2024/03/17 11:00:51;;;;;;;0.63;0.50;;;18.00;92.80;;;;;;4898920;29;20478;-61
2024/03/17 11:03:18;;;;;;;0.30;0.27;;;17.90;92.00;;;;;;4898744;29;20548;-61
2024/03/17 11:05:46;;;;;;;0.53;0.53;;;17.80;93.90;;;;;;4897148;29;20191;-60
2024/03/17 11:08:16;;;;;;;0.30;0.20;;;17.70;95.70;;;;;;4898386;29;20484;-61
2024/03/17 11:10:50;;;;;;;0.30;0.20;;;18.00;96.40;;;;;;4898629;29;20407;-62
2024/03/17 11:13:27;;;;;;;0.60;0.60;;;18.20;96.00;;;;;;4898589;29;20398;-61
2024/03/17 11:15:55;;;;;;;0.30;0.30;;;18.50;94.00;;;;;;4898187;29;20393;-61
2024/03/17 11:18:21;;;;;;;0.30;0.30;;;18.60;94.80;;;;;;4898283;29;20401;-61
2024/03/17 11:21:15;;;;;;;0.30;0.20;;;18.80;95.10;;;;;;4898515;29;20415;-61
2024/03/17 11:23:42;;;;;;;0.70;0.40;;;18.80;94.50;;;;;;4898306;29;20203;-61
2024/03/17 11:26:08;;;;;;;0.30;0.20;;;18.70;93.30;;;;;;4897825;29;20788;-61
2024/03/17 11:28:49;;;;;;;0.83;0.83;;;18.50;93.60;;;;;;4898133;29;20524;-61
2024/03/17 11:31:35;;;;;;;0.30;0.20;;;18.10;94.60;;;;;;4898391;29;20460;-62
2024/03/17 11:34:03;;;;;;;0.30;0.30;;;17.90;93.80;;;;;;4898214;29;20419;-62
2024/03/17 11:36:28;;;;;;;0.40;0.40;;;17.90;94.50;;;;;;4897746;29;20493;-62
2024/03/17 11:38:54;;;;;;;0.30;0.27;;;17.80;95.00;;;;;;4898094;29;20514;-63
2024/03/17 11:41:41;;;;;;;0.33;0.33;;;17.50;95.10;;;;;;4898187;29;20602;-61
2024/03/17 11:44:33;;;;;;;0.30;0.30;;;17.30;96.30;;;;;;4896697;29;20476;-61
2024/03/17 11:47:03;;;;;;;0.30;0.30;;;17.20;95.80;;;;;;4896218;29;20443;-61
2024/03/17 11:49:40;;;;;;;0.77;0.50;;;17.10;95.60;;;;;;4896640;29;20922;-61
2024/03/17 11:52:16;;;;;;;0.30;0.27;;;16.90;95.80;;;;;;4898136;29;20426;-60
2024/03/17 11:54:48;;;;;;;0.30;0.30;;;16.80;96.00;;;;;;4896513;29;20773;-61
2024/03/17 11:57:24;;;;;;;0.40;0.40;;;16.80;95.90;;;;;;4897972;29;20763;-61
2024/03/17 11:59:52;;;;;;;0.40;0.40;;;16.80;96.10;;;;;;4897870;29;20487;-61
2024/03/17 12:02:20;;;;;;;0.33;0.33;;;16.90;97.00;;;;;;4897865;29;20470;-61
2024/03/17 12:04:46;;;;;;;0.30;0.20;;;16.90;96.80;;;;;;4897442;29;20893;-61
2024/03/17 12:07:13;;;;;;;0.30;0.27;;;16.90;96.20;;;;;;4897626;29;20459;-62
2024/03/17 12:09:42;;;;;;;0.50;0.50;;;16.90;95.20;;;;;;4897829;29;20408;-61
2024/03/17 12:12:21;;;;;;;0.30;0.30;;;16.90;95.40;;;;;;4897982;29;20397;-60
2024/03/17 12:14:48;;;;;;;0.30;0.30;;;16.90;95.70;;;;;;4897732;29;20390;-62
2024/03/17 12:17:15;;;;;;;0.30;0.30;;;16.80;95.10;;;;;;4897775;29;20453;-62
2024/03/17 12:19:44;;;;;;;0.30;0.30;;;16.80;96.00;;;;;;4897603;29;20566;-60
2024/03/17 12:22:25;;;;;;;0.30;0.30;;;16.80;95.50;;;;;;4897584;29;20466;-63
2024/03/17 12:24:55;;;;;;;0.40;0.40;;;16.80;95.40;;;;;;4897507;29;20415;-62
2024/03/17 12:27:23;;;;;;;0.50;0.50;;;16.90;95.10;;;;;;4897822;29;20835;-61
2024/03/17 12:29:50;;;;;;;0.30;0.30;;;17.00;94.90;;;;;;4899856;29;20389;-60
2024/03/17 12:32:24;;;;;;;0.50;0.33;;;17.00;94.60;;;;;;4901669;29;21100;-62
2024/03/17 12:34:57;;;;;;;0.30;0.20;;;17.00;94.80;;;;;;4901146;29;20427;-61
2024/03/17 12:37:28;;;;;;;0.30;0.30;;;17.10;94.20;;;;;;4901559;29;20421;-61
2024/03/17 12:39:53;;;;;;;0.40;0.40;;;17.10;94.20;;;;;;4901490;29;20390;-61
2024/03/17 12:42:28;;;;;;;0.30;0.27;;;17.00;94.60;;;;;;4901448;29;21061;-61
2024/03/17 12:44:59;;;;;;;0.40;0.40;;;17.00;95.00;;;;;;4900817;29;20174;-61
2024/03/17 12:47:28;;;;;;;0.30;0.30;;;17.10;95.80;;;;;;4901116;29;20418;-60
2024/03/17 12:49:55;;;;;;;0.40;0.40;;;17.10;95.40;;;;;;4887615;29;20506;-62
2024/03/17 12:52:22;;;;;;;0.30;0.30;;;16.90;94.60;;;;;;4882618;29;20839;-62
2024/03/17 13:00:33;;;;;;;0.30;0.20;;;16.20;95.50;;;;;;4882369;29;20989;-61
2024/03/17 13:03:03;;;;;;;0.40;0.40;;;16.30;95.90;;;;;;4882229;29;20558;-60
2024/03/17 13:05:29;;;;;;;0.30;0.30;;;16.40;96.40;;;;;;4880543;29;20473;-61
2024/03/17 13:07:57;;;;;;;0.30;0.30;;;16.40;95.80;;;;;;4882037;29;20803;-63
2024/03/17 13:10:24;;;;;;;0.30;0.20;;;16.60;96.00;;;;;;4882065;29;20487;-61
2024/03/17 13:13:01;;;;;;;0.30;0.30;;;16.70;95.90;;;;;;4882236;29;20809;-62
2024/03/17 13:15:27;;;;;;;0.30;0.30;;;16.60;94.80;;;;;;4881847;29;20795;-62
2024/03/17 13:17:52;;;;;;;0.30;0.30;;;16.50;95.40;;;;;;4881908;29;20440;-61
2024/03/17 13:20:18;;;;;;;0.47;0.47;;;16.40;95.20;;;;;;4882457;29;20639;-62
2024/03/17 13:22:45;;;;;;;0.30;0.20;;;16.30;95.00;;;;;;4882059;29;20223;-63
2024/03/17 13:25:16;;;;;;;0.30;0.30;;;16.30;95.40;;;;;;4880169;29;20392;-61
2024/03/17 13:27:42;;;;;;;0.30;0.30;;;16.20;95.60;;;;;;4881532;29;20530;-62
2024/03/17 13:30:09;;;;;;;0.30;0.30;;;16.20;95.50;;;;;;4881484;29;20455;-62
2024/03/17 13:32:35;;;;;;;0.30;0.30;;;16.10;96.00;;;;;;4881252;29;20403;-61
2024/03/17 13:35:02;;;;;;;0.30;0.30;;;16.00;95.80;;;;;;4881183;29;20406;-62
2024/03/17 13:37:28;;;;;;;0.70;0.53;;;16.10;95.60;;;;;;4881566;29;20453;-62
2024/03/17 13:39:53;;;;;;;0.40;0.40;;;16.00;95.20;;;;;;4881703;29;20455;-61
2024/03/17 13:42:20;;;;;;;0.30;0.30;;;16.10;95.70;;;;;;4881686;29;20231;-62
2024/03/17 13:44:46;;;;;;;0.33;0.33;;;16.20;95.90;;;;;;4881064;29;20720;-62
2024/03/17 13:47:13;;;;;;;0.40;0.40;;;16.30;95.60;;;;;;4881271;29;20532;-62
2024/03/17 13:49:39;;;;;;;0.40;0.40;;;16.40;95.60;;;;;;4891939;29;20185;-61
2024/03/17 13:52:05;;;;;;;0.30;0.30;;;16.30;95.90;;;;;;4899996;29;20499;-62
2024/03/17 13:54:31;;;;;;;0.30;0.20;;;16.40;95.80;;;;;;4899731;29;20178;-62
2024/03/17 13:56:58;;;;;;;0.57;0.57;;;16.30;95.50;;;;;;4900111;29;20207;-62
2024/03/17 13:59:25;;;;;;;0.30;0.30;;;16.20;95.60;;;;;;4900157;29;20439;-62
2024/03/17 14:01:50;;;;;;;0.30;0.30;;;16.30;95.70;;;;;;4899790;29;20453;-61
2024/03/17 14:04:17;;;;;;;0.40;0.40;;;16.30;95.70;;;;;;4899759;29;20497;-62
2024/03/17 14:06:48;;;;;;;0.80;0.80;;;16.30;95.30;;;;;;4899580;29;20226;-62
2024/03/17 14:09:17;;;;;;;0.30;0.20;;;16.30;95.10;;;;;;4899750;29;20460;-61
2024/03/17 14:11:43;;;;;;;0.30;0.30;;;16.30;95.20;;;;;;4898559;29;20431;-62
2024/03/17 14:14:12;;;;;;;0.30;0.30;;;16.40;95.00;;;;;;4899537;29;20397;-61
2024/03/17 14:16:40;;;;;;;0.50;0.50;;;16.50;94.90;;;;;;4899155;29;20435;-62
2024/03/17 14:19:06;;;;;;;0.30;0.30;;;16.50;94.80;;;;;;4899741;29;20514;-62
2024/03/17 14:21:31;;;;;;;0.40;0.40;;;16.50;94.90;;;;;;4899487;29;20481;-61
2024/03/17 14:23:57;;;;;;;0.30;0.30;;;16.50;94.60;;;;;;4899494;29;20213;-63
2024/03/17 14:26:23;;;;;;;0.30;0.30;;;16.40;95.30;;;;;;4899291;29;20198;-59
2024/03/17 14:28:50;;;;;;;0.30;0.30;;;16.30;95.50;;;;;;4899410;29;20175;-62
2024/03/17 14:31:17;;;;;;;0.40;0.33;;;16.20;95.60;;;;;;4899320;29;20427;-63
2024/03/17 14:33:43;;;;;;;0.30;0.30;;;16.30;95.50;;;;;;4899386;29;20424;-63
2024/03/17 14:36:09;;;;;;;0.30;0.30;;;16.30;95.40;;;;;;4899050;29;20390;-62
2024/03/17 14:38:35;;;;;;;0.30;0.30;;;16.40;94.90;;;;;;4899266;29;20415;-62
2024/03/17 14:41:01;;;;;;;0.63;0.47;;;16.40;94.50;;;;;;4899289;29;20890;-62
2024/03/17 14:43:27;;;;;;;0.30;0.20;;;16.40;94.30;;;;;;4899094;29;20210;-61
2024/03/17 14:45:52;;;;;;;0.30;0.30;;;16.50;95.00;;;;;;4898978;29;20415;-62
2024/03/17 14:48:19;;;;;;;0.33;0.33;;;16.50;94.70;;;;;;4898593;29;20171;-61
2024/03/17 14:50:44;;;;;;;0.30;0.30;;;16.50;94.70;;;;;;4880360;29;20661;-62
2024/03/17 14:53:10;;;;;;;0.30;0.30;;;16.50;94.80;;;;;;4879848;29;20507;-62
2024/03/17 14:55:35;;;;;;;0.30;0.20;;;16.40;95.00;;;;;;4878689;29;20602;-62
2024/03/17 14:58:02;;;;;;;0.30;0.30;;;16.40;95.10;;;;;;4880127;29;20295;-62
2024/03/17 15:00:30;;;;;;;0.30;0.30;;;16.30;95.10;;;;;;4880479;29;20187;-62
2024/03/17 15:02:56;;;;;;;0.30;0.30;;;16.40;94.80;;;;;;4880215;29;20481;-63
2024/03/17 15:05:23;;;;;;;0.30;0.30;;;16.30;94.90;;;;;;4879951;29;20422;-61
2024/03/17 15:07:50;;;;;;;0.30;0.20;;;16.30;95.40;;;;;;4879948;29;20472;-61
2024/03/17 15:10:17;;;;;;;0.30;0.30;;;16.20;95.70;;;;;;4880234;29;20431;-62
2024/03/17 15:12:44;;;;;;;0.30;0.20;;;16.20;95.50;;;;;;4880148;29;20427;-61
2024/03/17 15:15:10;;;;;;;0.40;0.40;;;16.10;95.00;;;;;;4879753;29;20416;-62
2024/03/17 15:17:36;;;;;;;0.30;0.20;;;16.00;95.20;;;;;;4879888;29;21033;-62
2024/03/17 15:20:08;;;;;;;0.30;0.30;;;15.90;95.10;;;;;;4879859;29;20523;-61
2024/03/17 15:22:34;;;;;;;0.30;0.30;;;15.80;95.00;;;;;;4880016;29;20287;-63
2024/03/17 15:24:59;;;;;;;0.37;0.37;;;15.70;95.30;;;;;;4879561;29;20848;-61
2024/03/17 15:27:25;;;;;;;0.30;0.30;;;15.60;96.40;;;;;;4879624;29;20680;-63
2024/03/17 15:29:52;;;;;;;0.37;0.37;;;15.60;96.20;;;;;;4879700;29;20182;-62
2024/03/17 15:32:17;;;;;;;0.30;0.30;;;15.60;95.90;;;;;;4879667;29;20237;-62
2024/03/17 15:34:43;;;;;;;0.30;0.30;;;15.60;95.70;;;;;;4879402;29;20401;-61
2024/03/17 15:37:09;;;;;;;0.30;0.27;;;15.60;95.70;;;;;;4879771;29;20222;-63
2024/03/17 15:39:35;;;;;;;0.30;0.30;;;15.70;95.70;;;;;;4879764;29;20185;-62
2024/03/17 15:42:01;;;;;;;0.40;0.40;;;15.60;96.20;;;;;;4879616;29;20189;-61
2024/03/17 15:44:27;;;;;;;0.30;0.30;;;15.60;96.40;;;;;;4879161;29;20422;-62
2024/03/17 15:46:53;;;;;;;0.30;0.30;;;15.50;96.20;;;;;;4878282;29;20445;-62
2024/03/17 15:49:18;;;;;;;0.30;0.30;;;15.40;96.20;;;;;;4887414;29;20515;-63
2024/03/17 15:51:44;;;;;;;0.30;0.30;;;15.30;96.40;;;;;;4898015;29;20603;-62
2024/03/17 15:54:09;;;;;;;0.30;0.20;;;15.20;96.90;;;;;;4898227;29;20535;-62
2024/03/17 15:56:35;;;;;;;0.30;0.30;;;15.10;96.80;;;;;;4897743;29;20292;-62
2024/03/17 15:59:02;;;;;;;0.30;0.30;;;15.00;97.30;;;;;;4898472;29;20304;-61
2024/03/17 16:01:27;;;;;;;0.87;0.70;;;15.00;97.20;;;;;;4898137;29;20187;-61
2024/03/17 16:03:53;;;;;;;0.30;0.30;;;14.90;97.20;;;;;;4897183;29;20459;-62
2024/03/17 16:06:21;;;;;;;0.30;0.30;;;14.90;97.50;;;;;;4897720;29;20192;-61
2024/03/17 16:08:49;;;;;;;0.40;0.40;;;14.80;97.90;;;;;;4896368;29;20202;-63
2024/03/17 16:11:26;;;;;;;0.50;0.50;;;14.60;98.10;;;;;;4897833;29;20481;-60
2024/03/17 16:13:55;;;;;;;0.30;0.30;;;14.50;98.50;;;;;;4897738;29;20434;-62
2024/03/17 16:16:25;;;;;;;0.57;0.57;;;14.30;98.50;;;;;;4896411;29;20420;-61
2024/03/17 16:18:51;;;;;;;0.37;0.37;;;14.20;98.60;;;;;;4897890;29;20467;-62
2024/03/17 16:21:19;;;;;;;0.30;0.30;;;14.20;98.60;;;;;;4896612;29;20449;-61
2024/03/17 16:24:11;;;;;;;0.53;0.40;;;14.20;98.90;;;;;;4897599;29;20540;-61
2024/03/17 16:26:37;;;;;;;0.30;0.30;;;14.10;99.10;;;;;;4897413;29;20440;-61
2024/03/17 16:29:05;;;;;;;0.40;0.30;;;14.10;99.10;;;;;;4897837;29;20426;-61
2024/03/17 16:31:31;;;;;;;0.30;0.30;;;14.00;98.80;;;;;;4897656;29;20397;-61
2024/03/17 16:33:59;;;;;;;0.70;0.70;;;14.00;98.70;;;;;;4897580;29;20481;-62
2024/03/17 16:36:25;;;;;;;0.30;0.30;;;14.00;98.80;;;;;;4897274;29;20469;-61
2024/03/17 16:38:52;;;;;;;0.30;0.30;;;13.90;99.10;;;;;;4897620;29;20407;-61
2024/03/17 16:41:21;;;;;;;0.30;0.30;;;13.90;99.40;;;;;;4897611;29;20386;-60
2024/03/17 16:44:01;;;;;;;0.30;0.30;;;13.80;99.30;;;;;;4897676;29;20454;-61
2024/03/17 16:46:45;;;;;;;0.30;0.30;;;13.80;99.40;;;;;;4897090;29;20433;-62
2024/03/17 16:49:13;;;;;;;0.30;0.30;;;13.70;99.50;;;;;;4890421;29;20762;-58
2024/03/17 16:51:39;;;;;;;0.50;0.50;;;13.70;99.50;;;;;;4878825;29;20469;-61
2024/03/17 16:54:05;;;;;;;0.40;0.40;;;13.70;99.70;;;;;;4878982;29;20397;-61
2024/03/17 16:56:31;;;;;;;0.40;0.40;;;13.70;99.80;;;;;;4878449;29;20439;-61
2024/03/17 16:58:57;;;;;;;0.40;0.40;;;13.60;99.80;;;;;;4878848;29;20218;-59
2024/03/17 17:01:24;;;;;;;0.30;0.30;;;13.60;99.90;;;;;;4878768;29;20764;-61
2024/03/17 17:03:50;;;;;;;0.40;0.40;;;13.60;99.90;;;;;;4878756;29;20506;-61
2024/03/17 17:06:16;;;;;;;0.30;0.20;;;13.60;99.90;;;;;;4878375;29;20412;-62
2024/03/17 17:08:42;;;;;;;0.30;0.30;;;13.60;99.90;;;;;;4878650;29;20763;-60
2024/03/17 17:11:17;;;;;;;0.40;0.40;;;13.50;99.90;;;;;;4878351;29;20196;-60
2024/03/17 17:13:46;;;;;;;0.30;0.20;;;13.50;99.90;;;;;;4878625;29;20375;-62
2024/03/17 17:16:12;;;;;;;0.30;0.30;;;13.50;99.90;;;;;;4880396;29;20419;-62
2024/03/17 17:18:51;;;;;;;0.40;0.40;;;13.50;99.90;;;;;;4881826;29;20412;-61
2024/03/17 17:21:24;;;;;;;0.63;0.63;;;13.50;99.90;;;;;;4882058;29;20825;-61
2024/03/17 17:23:50;;;;;;;0.30;0.30;;;13.40;99.90;;;;;;4881838;29;20546;-62
2024/03/17 17:26:21;;;;;;;0.30;0.30;;;13.40;99.90;;;;;;4881500;29;20444;-63
2024/03/17 17:28:52;;;;;;;0.30;0.30;;;13.40;99.90;;;;;;4881916;29;20414;-61
2024/03/17 17:31:18;;;;;;;0.33;0.33;;;13.40;99.90;;;;;;4881813;29;20409;-62
2024/03/17 17:33:44;;;;;;;0.30;0.30;;;13.30;99.90;;;;;;4881851;29;20496;-64
2024/03/17 17:36:12;;;;;;;0.60;0.60;;;13.30;99.90;;;;;;4881355;29;20217;-61
2024/03/17 17:38:38;;;;;;;0.30;0.30;;;13.30;99.90;;;;;;4881667;29;20419;-62
2024/03/17 17:41:25;;;;;;;0.40;0.40;;;13.30;99.90;;;;;;4881725;29;20426;-60
2024/03/17 17:43:52;;;;;;;0.40;0.40;;;13.20;99.90;;;;;;4881325;29;20221;-61
2024/03/17 17:46:20;;;;;;;0.30;0.30;;;13.20;99.90;;;;;;4881225;29;20443;-60
2024/03/17 17:48:45;;;;;;;0.30;0.30;;;13.20;99.90;;;;;;4899716;29;20425;-60
2024/03/17 17:51:16;;;;;;;0.30;0.30;;;13.10;99.90;;;;;;4900157;29;20378;-60
2024/03/17 17:53:42;;;;;;;0.40;0.40;;;13.10;99.90;;;;;;4900281;29;20430;-62
2024/03/17 17:56:09;;;;;;;0.80;0.80;;;13.10;99.90;;;;;;4898509;29;20396;-60
2024/03/17 17:58:36;;;;;;;0.40;0.40;;;13.10;99.90;;;;;;4900329;29;20400;-60
2024/03/17 18:01:03;;;;;;;0.30;0.30;;;13.10;99.90;;;;;;4900308;29;20427;-60
2024/03/17 18:03:29;;;;;;;0.40;0.40;;;13.00;99.90;;;;;;4882904;29;20465;-61